createdAt,value
2018-09-02T00:00:15.945Z,1002.53
2018-09-02T00:01:15.926Z,1002.49
2018-09-02T00:02:15.901Z,1002.52
2018-09-02T00:03:15.887Z,1002.54
2018-09-02T00:04:15.865Z,1002.52
2018-09-02T00:05:15.842Z,1002.52
2018-09-02T00:06:15.821Z,1002.52
2018-09-02T00:07:15.801Z,1002.57
2018-09-02T00:08:15.783Z,1002.49
2018-09-02T00:09:15.759Z,1002.50
2018-09-02T00:10:15.736Z,1002.51
2018-09-02T00:11:15.723Z,1002.49
2018-09-02T00:12:15.698Z,1002.52
2018-09-02T00:13:15.675Z,1002.52
2018-09-02T00:14:15.656Z,1002.55
2018-09-02T00:15:15.637Z,1002.57
2018-09-02T00:16:15.617Z,1002.55
2018-09-02T00:17:15.599Z,1002.59
2018-09-02T00:18:15.577Z,1002.55
2018-09-02T00:19:15.555Z,1002.51
2018-09-02T00:20:15.561Z,1002.59
2018-09-02T00:21:15.512Z,1002.57
2018-09-02T00:22:15.498Z,1002.52
2018-09-02T00:23:15.484Z,1002.57
2018-09-02T00:24:15.463Z,1002.56
2018-09-02T00:25:15.438Z,1002.57
2018-09-02T00:26:15.433Z,1002.57
2018-09-02T00:27:15.392Z,1002.57
2018-09-02T00:28:15.373Z,1002.58
2018-09-02T00:29:15.356Z,1002.60
2018-09-02T00:30:15.334Z,1002.54
2018-09-02T00:31:15.318Z,1002.55
2018-09-02T00:32:15.296Z,1002.55
2018-09-02T00:33:15.298Z,1002.57
2018-09-02T00:34:15.261Z,1002.51
2018-09-02T00:35:15.332Z,1002.53
2018-09-02T00:36:15.454Z,1002.51
2018-09-02T00:37:15.264Z,1002.51
2018-09-02T00:38:15.296Z,1002.51
2018-09-02T00:39:15.153Z,1002.50
2018-09-02T00:40:15.243Z,1002.52
2018-09-02T00:41:15.112Z,1002.49
2018-09-02T00:42:15.102Z,1002.45
2018-09-02T00:43:15.082Z,1002.44
2018-09-02T00:44:15.118Z,1002.45
2018-09-02T00:45:15.161Z,1002.45
2018-09-02T00:46:15.093Z,1002.45
2018-09-02T00:47:14.997Z,1002.44
2018-09-02T00:48:14.975Z,1002.44
2018-09-02T00:49:14.955Z,1002.45
2018-09-02T00:50:15.087Z,1002.43
2018-09-02T00:51:14.923Z,1002.43
2018-09-02T00:52:14.901Z,1002.45
2018-09-02T00:53:14.889Z,1002.40
2018-09-02T00:54:14.978Z,1002.42
2018-09-02T00:55:14.840Z,1002.44
2018-09-02T00:56:14.818Z,1002.45
2018-09-02T00:57:14.995Z,1002.47
2018-09-02T00:58:14.786Z,1002.43
2018-09-02T00:59:14.773Z,1002.45
2018-09-02T01:00:14.750Z,1002.42
2018-09-02T01:01:14.735Z,1002.43
2018-09-02T01:02:14.706Z,1002.41
2018-09-02T01:03:14.691Z,1002.40
2018-09-02T01:04:14.673Z,1002.41
2018-09-02T01:05:14.654Z,1002.40
2018-09-02T01:06:14.635Z,1002.41
2018-09-02T01:07:14.612Z,1002.40
2018-09-02T01:08:14.593Z,1002.39
2018-09-02T01:09:14.612Z,1002.40
2018-09-02T01:10:14.556Z,1002.39
2018-09-02T01:11:14.537Z,1002.33
2018-09-02T01:12:14.515Z,1002.35
2018-09-02T01:13:14.498Z,1002.34
2018-09-02T01:14:14.479Z,1002.37
2018-09-02T01:15:14.461Z,1002.35
2018-09-02T01:16:14.441Z,1002.38
2018-09-02T01:17:14.428Z,1002.39
2018-09-02T01:18:14.409Z,1002.38
2018-09-02T01:19:14.384Z,1002.41
2018-09-02T01:20:14.370Z,1002.38
2018-09-02T01:21:14.349Z,1002.40
2018-09-02T01:22:14.327Z,1002.38
2018-09-02T01:23:14.321Z,1002.35
2018-09-02T01:24:14.291Z,1002.35
2018-09-02T01:25:14.272Z,1002.36
2018-09-02T01:26:14.257Z,1002.32
2018-09-02T01:27:14.246Z,1002.30
2018-09-02T01:28:14.215Z,1002.28
2018-09-02T01:29:14.196Z,1002.26
2018-09-02T01:30:14.180Z,1002.28
2018-09-02T01:31:14.165Z,1002.26
2018-09-02T01:32:14.144Z,1002.23
2018-09-02T01:33:14.123Z,1002.24
2018-09-02T01:34:14.109Z,1002.22
2018-09-02T01:35:14.087Z,1002.21
2018-09-02T01:36:14.074Z,1002.20
2018-09-02T01:37:14.052Z,1002.19
2018-09-02T01:38:14.026Z,1002.17
2018-09-02T01:39:14.021Z,1002.16
2018-09-02T01:40:13.998Z,1002.16
2018-09-02T01:41:13.982Z,1002.14
2018-09-02T01:42:13.956Z,1002.13
2018-09-02T01:43:13.940Z,1002.17
2018-09-02T01:44:13.922Z,1002.17
2018-09-02T01:45:13.909Z,1002.20
2018-09-02T01:46:13.889Z,1002.21
2018-09-02T01:47:13.868Z,1002.17
2018-09-02T01:48:13.848Z,1002.20
2018-09-02T01:49:13.835Z,1002.20
2018-09-02T01:50:13.815Z,1002.17
2018-09-02T01:51:13.793Z,1002.16
2018-09-02T01:52:13.774Z,1002.14
2018-09-02T01:53:13.762Z,1002.18
2018-09-02T01:54:13.743Z,1002.15
2018-09-02T01:55:13.724Z,1002.16
2018-09-02T01:56:13.705Z,1002.20
2018-09-02T01:57:13.689Z,1002.17
2018-09-02T01:58:13.663Z,1002.19
2018-09-02T01:59:13.651Z,1002.15
2018-09-02T02:00:13.634Z,1002.15
2018-09-02T02:01:13.615Z,1002.16
2018-09-02T02:02:13.590Z,1002.12
2018-09-02T02:03:13.574Z,1002.10
2018-09-02T02:04:13.562Z,1002.09
2018-09-02T02:05:13.536Z,1002.12
2018-09-02T02:06:13.523Z,1002.11
2018-09-02T02:07:13.498Z,1002.07
2018-09-02T02:08:13.478Z,1002.08
2018-09-02T02:09:13.463Z,1002.01
2018-09-02T02:10:13.453Z,1002.05
2018-09-02T02:11:13.424Z,1002.02
2018-09-02T02:12:13.411Z,1002.05
2018-09-02T02:13:13.392Z,1002.06
2018-09-02T02:14:13.377Z,1002.04
2018-09-02T02:15:13.356Z,1002.01
2018-09-02T02:16:13.340Z,1002.01
2018-09-02T02:17:13.314Z,1002.00
2018-09-02T02:18:13.304Z,1001.98
2018-09-02T02:19:13.276Z,1001.99
2018-09-02T02:20:13.269Z,1002.01
2018-09-02T02:21:13.244Z,1001.99
2018-09-02T02:22:13.222Z,1002.02
2018-09-02T02:23:13.209Z,1001.97
2018-09-02T02:24:13.193Z,1001.99
2018-09-02T02:25:13.175Z,1001.97
2018-09-02T02:26:13.156Z,1001.92
2018-09-02T02:27:13.136Z,1001.92
2018-09-02T02:28:13.115Z,1001.90
2018-09-02T02:29:13.094Z,1001.94
2018-09-02T02:30:13.075Z,1001.92
2018-09-02T02:31:13.063Z,1001.90
2018-09-02T02:32:13.044Z,1001.88
2018-09-02T02:33:13.021Z,1001.87
2018-09-02T02:34:13.003Z,1001.88
2018-09-02T02:35:12.987Z,1001.84
2018-09-02T02:36:12.973Z,1001.84
2018-09-02T02:37:12.948Z,1001.83
2018-09-02T02:38:12.934Z,1001.86
2018-09-02T02:39:12.910Z,1001.87
2018-09-02T02:40:12.889Z,1001.84
2018-09-02T02:41:12.873Z,1001.89
2018-09-02T02:42:12.854Z,1001.88
2018-09-02T02:43:12.838Z,1001.88
2018-09-02T02:44:12.822Z,1001.91
2018-09-02T02:45:12.805Z,1001.89
2018-09-02T02:46:12.787Z,1001.89
2018-09-02T02:47:12.771Z,1001.89
2018-09-02T02:48:12.748Z,1001.88
2018-09-02T02:49:12.725Z,1001.88
2018-09-02T02:50:12.712Z,1001.91
2018-09-02T02:51:12.690Z,1001.92
2018-09-02T02:52:12.674Z,1001.86
2018-09-02T02:53:12.652Z,1001.88
2018-09-02T02:54:12.652Z,1001.87
2018-09-02T02:55:12.623Z,1001.86
2018-09-02T02:56:12.617Z,1001.85
2018-09-02T02:57:12.578Z,1001.82
2018-09-02T02:58:12.559Z,1001.85
2018-09-02T02:59:12.539Z,1001.82
2018-09-02T03:00:12.524Z,1001.85
2018-09-02T03:01:12.507Z,1001.84
2018-09-02T03:02:12.485Z,1001.80
2018-09-02T03:03:12.469Z,1001.80
2018-09-02T03:04:12.452Z,1001.79
2018-09-02T03:05:12.437Z,1001.82
2018-09-02T03:06:12.421Z,1001.83
2018-09-02T03:07:12.398Z,1001.77
2018-09-02T03:08:12.377Z,1001.84
2018-09-02T03:09:12.362Z,1001.80
2018-09-02T03:10:12.337Z,1001.81
2018-09-02T03:11:12.325Z,1001.84
2018-09-02T03:12:12.310Z,1001.76
2018-09-02T03:13:12.284Z,1001.75
2018-09-02T03:14:12.271Z,1001.77
2018-09-02T03:15:12.252Z,1001.76
2018-09-02T03:16:12.236Z,1001.73
2018-09-02T03:17:12.217Z,1001.77
2018-09-02T03:18:12.196Z,1001.74
2018-09-02T03:19:12.181Z,1001.72
2018-09-02T03:20:12.160Z,1001.70
2018-09-02T03:21:12.141Z,1001.74
2018-09-02T03:22:12.123Z,1001.73
2018-09-02T03:23:12.103Z,1001.72
2018-09-02T03:24:12.088Z,1001.71
2018-09-02T03:25:12.065Z,1001.72
2018-09-02T03:26:12.046Z,1001.69
2018-09-02T03:27:12.035Z,1001.76
2018-09-02T03:28:12.010Z,1001.69
2018-09-02T03:29:11.997Z,1001.67
2018-09-02T03:30:11.978Z,1001.71
2018-09-02T03:31:11.960Z,1001.73
2018-09-02T03:32:11.940Z,1001.64
2018-09-02T03:33:11.934Z,1001.65
2018-09-02T03:34:11.901Z,1001.65
2018-09-02T03:35:11.886Z,1001.67
2018-09-02T03:36:11.864Z,1001.65
2018-09-02T03:37:11.847Z,1001.63
2018-09-02T03:38:11.829Z,1001.63
2018-09-02T03:39:11.812Z,1001.61
2018-09-02T03:40:11.800Z,1001.63
2018-09-02T03:41:11.773Z,1001.58
2018-09-02T03:42:11.752Z,1001.54
2018-09-02T03:43:11.745Z,1001.52
2018-09-02T03:44:11.724Z,1001.55
2018-09-02T03:45:11.703Z,1001.50
2018-09-02T03:46:11.689Z,1001.49
2018-09-02T03:47:11.662Z,1001.46
2018-09-02T03:48:11.646Z,1001.48
2018-09-02T03:49:11.630Z,1001.46
2018-09-02T03:50:11.606Z,1001.43
2018-09-02T03:51:11.595Z,1001.42
2018-09-02T03:52:11.579Z,1001.44
2018-09-02T03:53:11.566Z,1001.41
2018-09-02T03:54:11.542Z,1001.44
2018-09-02T03:55:11.522Z,1001.43
2018-09-02T03:56:11.510Z,1001.45
2018-09-02T03:57:11.481Z,1001.47
2018-09-02T03:58:11.461Z,1001.45
2018-09-02T03:59:11.445Z,1001.45
2018-09-02T04:00:11.430Z,1001.49
2018-09-02T04:01:11.407Z,1001.44
2018-09-02T04:02:11.394Z,1001.44
2018-09-02T04:03:11.374Z,1001.48
2018-09-02T04:04:11.557Z,1001.48
2018-09-02T04:05:11.368Z,1001.48
2018-09-02T04:06:11.325Z,1001.49
2018-09-02T04:07:11.302Z,1001.52
2018-09-02T04:08:11.284Z,1001.46
2018-09-02T04:09:11.267Z,1001.50
2018-09-02T04:10:11.241Z,1001.49
2018-09-02T04:11:11.235Z,1001.51
2018-09-02T04:12:11.210Z,1001.48
2018-09-02T04:13:11.194Z,1001.47
2018-09-02T04:14:11.171Z,1001.47
2018-09-02T04:15:11.153Z,1001.46
2018-09-02T04:16:11.144Z,1001.46
2018-09-02T04:17:11.115Z,1001.50
2018-09-02T04:18:11.095Z,1001.52
2018-09-02T04:19:11.086Z,1001.49
2018-09-02T04:20:11.073Z,1001.50
2018-09-02T04:21:11.043Z,1001.52
2018-09-02T04:22:11.029Z,1001.47
2018-09-02T04:23:11.029Z,1001.45
2018-09-02T04:24:10.993Z,1001.47
2018-09-02T04:25:10.974Z,1001.44
2018-09-02T04:26:10.957Z,1001.45
2018-09-02T04:27:10.941Z,1001.45
2018-09-02T04:28:10.922Z,1001.48
2018-09-02T04:29:10.909Z,1001.44
2018-09-02T04:30:10.891Z,1001.46
2018-09-02T04:31:10.870Z,1001.50
2018-09-02T04:32:10.845Z,1001.50
2018-09-02T04:33:10.829Z,1001.47
2018-09-02T04:34:10.810Z,1001.48
2018-09-02T04:35:10.788Z,1001.46
2018-09-02T04:36:10.772Z,1001.47
2018-09-02T04:37:10.760Z,1001.41
2018-09-02T04:38:10.735Z,1001.45
2018-09-02T04:39:10.721Z,1001.44
2018-09-02T04:40:10.696Z,1001.42
2018-09-02T04:41:10.683Z,1001.42
2018-09-02T04:42:10.657Z,1001.44
2018-09-02T04:43:10.641Z,1001.36
2018-09-02T04:44:10.626Z,1001.42
2018-09-02T04:45:10.648Z,1001.41
2018-09-02T04:46:10.588Z,1001.39
2018-09-02T04:47:10.575Z,1001.43
2018-09-02T04:48:10.548Z,1001.39
2018-09-02T04:49:10.534Z,1001.37
2018-09-02T04:50:10.517Z,1001.42
2018-09-02T04:51:10.500Z,1001.41
2018-09-02T04:52:10.490Z,1001.40
2018-09-02T04:53:10.464Z,1001.42
2018-09-02T04:54:10.484Z,1001.42
2018-09-02T04:55:10.421Z,1001.38
2018-09-02T04:56:10.411Z,1001.38
2018-09-02T04:57:10.391Z,1001.37
2018-09-02T04:58:10.365Z,1001.36
2018-09-02T04:59:10.346Z,1001.40
2018-09-02T05:00:10.374Z,1001.39
2018-09-02T05:01:10.313Z,1001.38
2018-09-02T05:02:10.300Z,1001.35
2018-09-02T05:03:10.279Z,1001.34
2018-09-02T05:04:10.256Z,1001.36
2018-09-02T05:05:10.240Z,1001.32
2018-09-02T05:06:10.219Z,1001.32
2018-09-02T05:07:10.198Z,1001.36
2018-09-02T05:08:10.186Z,1001.32
2018-09-02T05:09:10.160Z,1001.36
2018-09-02T05:10:10.146Z,1001.35
2018-09-02T05:11:10.123Z,1001.35
2018-09-02T05:12:10.109Z,1001.35
2018-09-02T05:13:10.086Z,1001.33
2018-09-02T05:14:10.127Z,1001.31
2018-09-02T05:15:10.055Z,1001.34
2018-09-02T05:16:10.026Z,1001.30
2018-09-02T05:17:10.016Z,1001.30
2018-09-02T05:18:09.990Z,1001.30
2018-09-02T05:19:09.971Z,1001.30
2018-09-02T05:20:09.958Z,1001.30
2018-09-02T05:21:09.959Z,1001.29
2018-09-02T05:22:09.923Z,1001.26
2018-09-02T05:23:09.902Z,1001.24
2018-09-02T05:24:09.882Z,1001.23
2018-09-02T05:25:09.865Z,1001.21
2018-09-02T05:26:09.846Z,1001.23
2018-09-02T05:27:09.834Z,1001.17
2018-09-02T05:28:09.805Z,1001.21
2018-09-02T05:29:09.789Z,1001.18
2018-09-02T05:30:09.770Z,1001.20
2018-09-02T05:31:09.748Z,1001.20
2018-09-02T05:32:09.732Z,1001.18
2018-09-02T05:33:09.733Z,1001.18
2018-09-02T05:34:09.697Z,1001.14
2018-09-02T05:35:09.688Z,1001.20
2018-09-02T05:36:09.653Z,1001.20
2018-09-02T05:37:09.647Z,1001.16
2018-09-02T05:38:09.621Z,1001.14
2018-09-02T05:39:09.608Z,1001.16
2018-09-02T05:40:09.582Z,1001.16
2018-09-02T05:41:09.566Z,1001.15
2018-09-02T05:42:09.553Z,1001.14
2018-09-02T05:43:09.536Z,1001.18
2018-09-02T05:44:09.568Z,1001.19
2018-09-02T05:45:09.497Z,1001.21
2018-09-02T05:46:09.482Z,1001.22
2018-09-02T05:47:09.461Z,1001.24
2018-09-02T05:48:09.436Z,1001.25
2018-09-02T05:49:09.417Z,1001.24
2018-09-02T05:50:09.468Z,1001.26
2018-09-02T05:51:09.382Z,1001.26
2018-09-02T05:52:09.366Z,1001.29
2018-09-02T05:53:09.364Z,1001.24
2018-09-02T05:54:09.327Z,1001.27
2018-09-02T05:55:09.311Z,1001.30
2018-09-02T05:56:09.295Z,1001.31
2018-09-02T05:57:09.280Z,1001.29
2018-09-02T05:58:09.260Z,1001.28
2018-09-02T05:59:09.242Z,1001.28
2018-09-02T06:00:09.226Z,1001.30
2018-09-02T06:01:09.203Z,1001.29
2018-09-02T06:02:09.189Z,1001.28
2018-09-02T06:03:09.172Z,1001.27
2018-09-02T06:04:09.156Z,1001.24
2018-09-02T06:05:09.136Z,1001.28
2018-09-02T06:06:09.128Z,1001.29
2018-09-02T06:07:09.099Z,1001.26
2018-09-02T06:08:09.075Z,1001.26
2018-09-02T06:09:09.062Z,1001.29
2018-09-02T06:10:09.049Z,1001.29
2018-09-02T06:11:09.027Z,1001.28
2018-09-02T06:12:09.008Z,1001.27
2018-09-02T06:13:08.996Z,1001.29
2018-09-02T06:14:08.976Z,1001.28
2018-09-02T06:15:08.964Z,1001.23
2018-09-02T06:16:08.948Z,1001.27
2018-09-02T06:17:08.981Z,1001.30
2018-09-02T06:18:08.913Z,1001.29
2018-09-02T06:19:08.898Z,1001.29
2018-09-02T06:20:08.881Z,1001.26
2018-09-02T06:21:08.856Z,1001.27
2018-09-02T06:22:08.840Z,1001.27
2018-09-02T06:23:08.827Z,1001.25
2018-09-02T06:24:08.808Z,1001.24
2018-09-02T06:25:08.795Z,1001.28
2018-09-02T06:26:08.770Z,1001.29
2018-09-02T06:27:08.754Z,1001.27
2018-09-02T06:28:08.745Z,1001.28
2018-09-02T06:29:08.729Z,1001.35
2018-09-02T06:30:08.721Z,1001.34
2018-09-02T06:31:08.694Z,1001.34
2018-09-02T06:32:08.680Z,1001.34
2018-09-02T06:33:08.655Z,1001.39
2018-09-02T06:34:08.641Z,1001.37
2018-09-02T06:35:08.632Z,1001.38
2018-09-02T06:36:08.610Z,1001.40
2018-09-02T06:37:08.589Z,1001.39
2018-09-02T06:38:08.576Z,1001.39
2018-09-02T06:39:08.564Z,1001.42
2018-09-02T06:40:08.539Z,1001.40
2018-09-02T06:41:08.529Z,1001.41
2018-09-02T06:42:08.510Z,1001.39
2018-09-02T06:43:08.498Z,1001.41
2018-09-02T06:44:08.474Z,1001.39
2018-09-02T06:45:08.462Z,1001.44
2018-09-02T06:46:08.443Z,1001.40
2018-09-02T06:47:08.430Z,1001.38
2018-09-02T06:48:08.420Z,1001.41
2018-09-02T06:49:08.401Z,1001.39
2018-09-02T06:50:08.379Z,1001.39
2018-09-02T06:51:08.367Z,1001.38
2018-09-02T06:52:08.348Z,1001.39
2018-09-02T06:53:08.339Z,1001.36
2018-09-02T06:54:08.316Z,1001.39
2018-09-02T06:55:08.310Z,1001.40
2018-09-02T06:56:08.291Z,1001.40
2018-09-02T06:57:08.275Z,1001.40
2018-09-02T06:58:08.261Z,1001.35
2018-09-02T06:59:08.239Z,1001.37
2018-09-02T07:00:08.229Z,1001.40
2018-09-02T07:01:08.214Z,1001.36
2018-09-02T07:02:08.198Z,1001.37
2018-09-02T07:03:08.185Z,1001.38
2018-09-02T07:04:08.165Z,1001.39
2018-09-02T07:05:08.163Z,1001.39
2018-09-02T07:06:08.140Z,1001.35
2018-09-02T07:07:08.163Z,1001.39
2018-09-02T07:08:08.111Z,1001.36
2018-09-02T07:09:08.092Z,1001.38
2018-09-02T07:10:08.076Z,1001.43
2018-09-02T07:11:08.069Z,1001.42
2018-09-02T07:12:08.047Z,1001.41
2018-09-02T07:13:08.030Z,1001.41
2018-09-02T07:14:08.018Z,1001.41
2018-09-02T07:15:08.012Z,1001.41
2018-09-02T07:16:07.992Z,1001.35
2018-09-02T07:17:07.976Z,1001.37
2018-09-02T07:18:08.671Z,1001.38
2018-09-02T07:19:07.947Z,1001.39
2018-09-02T07:20:08.021Z,1001.35
2018-09-02T07:21:07.921Z,1001.33
2018-09-02T07:22:07.902Z,1001.35
2018-09-02T07:23:07.893Z,1001.39
2018-09-02T07:24:07.874Z,1001.38
2018-09-02T07:25:07.854Z,1001.40
2018-09-02T07:26:07.851Z,1001.37
2018-09-02T07:27:07.828Z,1001.33
2018-09-02T07:28:07.812Z,1001.35
2018-09-02T07:29:07.793Z,1001.34
2018-09-02T07:30:07.782Z,1001.39
2018-09-02T07:31:07.768Z,1001.37
2018-09-02T07:32:07.752Z,1001.37
2018-09-02T07:33:07.741Z,1001.40
2018-09-02T07:34:07.729Z,1001.39
2018-09-02T07:35:07.710Z,1001.41
2018-09-02T07:36:07.694Z,1001.38
2018-09-02T07:37:07.680Z,1001.40
2018-09-02T07:38:07.668Z,1001.43
2018-09-02T07:39:07.659Z,1001.43
2018-09-02T07:40:07.634Z,1001.41
2018-09-02T07:41:07.620Z,1001.45
2018-09-02T07:42:07.614Z,1001.44
2018-09-02T07:43:07.591Z,1001.41
2018-09-02T07:44:07.624Z,1001.40
2018-09-02T07:45:07.562Z,1001.44
2018-09-02T07:46:07.550Z,1001.41
2018-09-02T07:47:07.543Z,1001.44
2018-09-02T07:48:07.524Z,1001.43
2018-09-02T07:49:07.505Z,1001.43
2018-09-02T07:50:07.495Z,1001.40
2018-09-02T07:51:07.482Z,1001.38
2018-09-02T07:52:07.469Z,1001.36
2018-09-02T07:53:07.450Z,1001.39
2018-09-02T07:54:07.444Z,1001.39
2018-09-02T07:55:07.421Z,1001.39
2018-09-02T07:56:07.415Z,1001.41
2018-09-02T07:57:07.407Z,1001.43
2018-09-02T07:58:07.383Z,1001.45
2018-09-02T07:59:07.371Z,1001.44
2018-09-02T08:00:07.356Z,1001.47
2018-09-02T08:01:07.340Z,1001.47
2018-09-02T08:02:07.327Z,1001.44
2018-09-02T08:03:07.311Z,1001.47
2018-09-02T08:04:07.299Z,1001.51
2018-09-02T08:05:07.289Z,1001.45
2018-09-02T08:06:07.273Z,1001.47
2018-09-02T08:07:07.267Z,1001.44
2018-09-02T08:08:07.253Z,1001.49
2018-09-02T08:09:07.273Z,1001.46
2018-09-02T08:10:07.222Z,1001.47
2018-09-02T08:11:07.209Z,1001.48
2018-09-02T08:12:07.193Z,1001.48
2018-09-02T08:13:07.183Z,1001.47
2018-09-02T08:14:07.177Z,1001.49
2018-09-02T08:15:07.155Z,1001.48
2018-09-02T08:16:07.139Z,1001.46
2018-09-02T08:17:07.127Z,1001.45
2018-09-02T08:18:07.113Z,1001.45
2018-09-02T08:19:07.104Z,1001.47
2018-09-02T08:20:07.094Z,1001.48
2018-09-02T08:21:07.086Z,1001.50
2018-09-02T08:22:07.067Z,1001.46
2018-09-02T08:23:07.053Z,1001.51
2018-09-02T08:24:07.046Z,1001.45
2018-09-02T08:25:07.033Z,1001.49
2018-09-02T08:26:07.024Z,1001.51
2018-09-02T08:27:07.005Z,1001.46
2018-09-02T08:28:06.992Z,1001.56
2018-09-02T08:29:06.984Z,1001.57
2018-09-02T08:30:06.966Z,1001.51
2018-09-02T08:31:06.960Z,1001.50
2018-09-02T08:32:06.946Z,1001.57
2018-09-02T08:33:07.043Z,1001.56
2018-09-02T08:34:06.926Z,1001.57
2018-09-02T08:35:06.915Z,1001.56
2018-09-02T08:36:06.896Z,1001.54
2018-09-02T08:37:06.890Z,1001.55
2018-09-02T08:38:06.874Z,1001.52
2018-09-02T08:39:06.884Z,1001.52
2018-09-02T08:40:06.850Z,1001.55
2018-09-02T08:41:06.836Z,1001.46
2018-09-02T08:42:06.832Z,1001.50
2018-09-02T08:43:06.816Z,1001.45
2018-09-02T08:44:06.815Z,1001.52
2018-09-02T08:45:06.797Z,1001.52
2018-09-02T08:46:06.784Z,1001.49
2018-09-02T08:47:06.775Z,1001.47
2018-09-02T08:48:06.760Z,1001.49
2018-09-02T08:49:06.750Z,1001.45
2018-09-02T08:50:06.740Z,1001.44
2018-09-02T08:51:06.728Z,1001.46
2018-09-02T08:52:06.714Z,1001.43
2018-09-02T08:53:06.701Z,1001.46
2018-09-02T08:54:06.690Z,1001.45
2018-09-02T08:55:06.686Z,1001.44
2018-09-02T08:56:06.684Z,1001.44
2018-09-02T08:57:06.660Z,1001.43
2018-09-02T08:58:06.652Z,1001.43
2018-09-02T08:59:06.641Z,1001.38
2018-09-02T09:00:06.625Z,1001.36
2018-09-02T09:01:06.612Z,1001.43
2018-09-02T09:02:06.616Z,1001.38
2018-09-02T09:03:06.602Z,1001.40
2018-09-02T09:04:06.578Z,1001.40
2018-09-02T09:05:06.571Z,1001.37
2018-09-02T09:06:06.563Z,1001.39
2018-09-02T09:07:06.553Z,1001.37
2018-09-02T09:08:06.587Z,1001.40
2018-09-02T09:09:07.594Z,1001.41
2018-09-02T09:10:06.515Z,1001.43
2018-09-02T09:11:06.511Z,1001.33
2018-09-02T09:12:06.495Z,1001.35
2018-09-02T09:13:06.490Z,1001.35
2018-09-02T09:14:06.600Z,1001.35
2018-09-02T09:15:06.470Z,1001.35
2018-09-02T09:16:06.451Z,1001.34
2018-09-02T09:17:06.556Z,1001.31
2018-09-02T09:18:06.434Z,1001.34
2018-09-02T09:19:06.422Z,1001.35
2018-09-02T09:20:06.418Z,1001.33
2018-09-02T09:21:06.402Z,1001.34
2018-09-02T09:22:06.442Z,1001.30
2018-09-02T09:23:06.383Z,1001.31
2018-09-02T09:24:06.440Z,1001.28
2018-09-02T09:25:06.423Z,1001.32
2018-09-02T09:26:06.355Z,1001.32
2018-09-02T09:27:06.339Z,1001.31
2018-09-02T09:28:06.330Z,1001.34
2018-09-02T09:29:06.330Z,1001.31
2018-09-02T09:30:06.314Z,1001.29
2018-09-02T09:31:06.320Z,1001.30
2018-09-02T09:32:06.299Z,1001.29
2018-09-02T09:33:06.278Z,1001.28
2018-09-02T09:34:06.272Z,1001.24
2018-09-02T09:35:06.259Z,1001.22
2018-09-02T09:36:06.253Z,1001.22
2018-09-02T09:37:06.243Z,1001.23
2018-09-02T09:38:06.227Z,1001.17
2018-09-02T09:39:06.214Z,1001.15
2018-09-02T09:40:06.204Z,1001.18
2018-09-02T09:41:06.195Z,1001.17
2018-09-02T09:42:06.182Z,1001.18
2018-09-02T09:43:06.176Z,1001.19
2018-09-02T09:44:06.159Z,1001.20
2018-09-02T09:45:06.150Z,1001.16
2018-09-02T09:46:06.241Z,1001.15
2018-09-02T09:47:06.127Z,1001.16
2018-09-02T09:48:06.120Z,1001.15
2018-09-02T09:49:06.117Z,1001.19
2018-09-02T09:50:06.101Z,1001.17
2018-09-02T09:51:06.085Z,1001.14
2018-09-02T09:52:06.079Z,1001.20
2018-09-02T09:53:06.069Z,1001.15
2018-09-02T09:54:06.057Z,1001.20
2018-09-02T09:55:06.044Z,1001.18
2018-09-02T09:56:06.032Z,1001.14
2018-09-02T09:57:06.021Z,1001.13
2018-09-02T09:58:06.034Z,1001.11
2018-09-02T09:59:05.999Z,1001.12
2018-09-02T10:00:05.986Z,1001.12
2018-09-02T10:01:05.977Z,1001.14
2018-09-02T10:02:05.958Z,1001.15
2018-09-02T10:03:05.949Z,1001.11
2018-09-02T10:04:05.936Z,1001.11
2018-09-02T10:05:05.927Z,1001.10
2018-09-02T10:06:05.917Z,1001.12
2018-09-02T10:07:05.902Z,1001.11
2018-09-02T10:08:05.891Z,1001.09
2018-09-02T10:09:05.876Z,1001.06
2018-09-02T10:10:05.866Z,1001.08
2018-09-02T10:11:05.851Z,1001.06
2018-09-02T10:12:05.843Z,1001.08
2018-09-02T10:13:05.836Z,1001.03
2018-09-02T10:14:05.817Z,1001.08
2018-09-02T10:15:05.802Z,1001.00
2018-09-02T10:16:05.799Z,1000.99
2018-09-02T10:17:05.823Z,1000.99
2018-09-02T10:18:05.798Z,1000.98
2018-09-02T10:19:05.751Z,1001.03
2018-09-02T10:20:05.744Z,1000.96
2018-09-02T10:21:05.738Z,1000.95
2018-09-02T10:22:05.715Z,1000.93
2018-09-02T10:23:05.702Z,1000.88
2018-09-02T10:24:05.695Z,1000.92
2018-09-02T10:25:05.677Z,1000.92
2018-09-02T10:26:05.674Z,1000.94
2018-09-02T10:27:05.650Z,1000.86
2018-09-02T10:28:05.638Z,1000.89
2018-09-02T10:29:05.626Z,1000.86
2018-09-02T10:30:05.616Z,1000.87
2018-09-02T10:31:05.602Z,1000.87
2018-09-02T10:32:05.587Z,1000.87
2018-09-02T10:33:05.581Z,1000.88
2018-09-02T10:34:05.567Z,1000.86
2018-09-02T10:35:05.559Z,1000.87
2018-09-02T10:36:05.553Z,1000.82
2018-09-02T10:37:05.535Z,1000.90
2018-09-02T10:38:05.522Z,1000.92
2018-09-02T10:39:05.503Z,1000.81
2018-09-02T10:40:05.493Z,1000.79
2018-09-02T10:41:05.552Z,1000.80
2018-09-02T10:42:05.467Z,1000.76
2018-09-02T10:43:05.465Z,1000.78
2018-09-02T10:44:05.451Z,1000.79
2018-09-02T10:45:05.426Z,1000.73
2018-09-02T10:46:05.420Z,1000.75
2018-09-02T10:47:05.407Z,1000.74
2018-09-02T10:48:05.396Z,1000.73
2018-09-02T10:49:05.381Z,1000.72
2018-09-02T10:50:05.369Z,1000.77
2018-09-02T10:51:05.359Z,1000.73
2018-09-02T10:52:05.349Z,1000.72
2018-09-02T10:53:05.333Z,1000.78
2018-09-02T10:54:05.327Z,1000.72
2018-09-02T10:55:05.312Z,1000.72
2018-09-02T10:56:05.301Z,1000.68
2018-09-02T10:57:05.283Z,1000.74
2018-09-02T10:58:05.276Z,1000.71
2018-09-02T10:59:05.260Z,1000.65
2018-09-02T11:00:05.250Z,1000.71
2018-09-02T11:01:05.235Z,1000.71
2018-09-02T11:02:05.222Z,1000.68
2018-09-02T11:03:05.212Z,1000.64
2018-09-02T11:04:05.203Z,1000.65
2018-09-02T11:05:05.183Z,1000.59
2018-09-02T11:06:05.170Z,1000.64
2018-09-02T11:07:05.167Z,1000.63
2018-09-02T11:08:05.150Z,1000.63
2018-09-02T11:09:05.138Z,1000.61
2018-09-02T11:10:05.125Z,1000.62
2018-09-02T11:11:05.112Z,1000.62
2018-09-02T11:12:05.106Z,1000.53
2018-09-02T11:13:05.138Z,1000.58
2018-09-02T11:14:05.083Z,1000.57
2018-09-02T11:15:05.061Z,1000.58
2018-09-02T11:16:05.051Z,1000.58
2018-09-02T11:17:05.035Z,1000.57
2018-09-02T11:18:05.029Z,1000.65
2018-09-02T11:19:05.013Z,1000.59
2018-09-02T11:20:05.013Z,1000.57
2018-09-02T11:21:04.994Z,1000.60
2018-09-02T11:22:04.981Z,1000.63
2018-09-02T11:23:04.964Z,1000.62
2018-09-02T11:24:04.954Z,1000.63
2018-09-02T11:25:04.958Z,1000.62
2018-09-02T11:26:04.923Z,1000.60
2018-09-02T11:27:04.928Z,1000.58
2018-09-02T11:28:04.900Z,1000.55
2018-09-02T11:29:04.887Z,1000.58
2018-09-02T11:30:04.884Z,1000.56
2018-09-02T11:31:04.864Z,1000.57
2018-09-02T11:32:04.858Z,1000.56
2018-09-02T11:33:04.843Z,1000.54
2018-09-02T11:34:04.886Z,1000.58
2018-09-02T11:35:04.816Z,1000.49
2018-09-02T11:36:04.806Z,1000.52
2018-09-02T11:37:04.794Z,1000.50
2018-09-02T11:38:04.778Z,1000.52
2018-09-02T11:39:04.766Z,1000.50
2018-09-02T11:40:04.750Z,1000.49
2018-09-02T11:41:04.740Z,1000.48
2018-09-02T11:42:04.728Z,1000.45
2018-09-02T11:43:04.718Z,1000.49
2018-09-02T11:44:04.699Z,1000.44
2018-09-02T11:45:04.701Z,1000.44
2018-09-02T11:46:04.683Z,1000.48
2018-09-02T11:47:04.665Z,1000.40
2018-09-02T11:48:04.647Z,1000.42
2018-09-02T11:49:04.635Z,1000.42
2018-09-02T11:50:04.622Z,1000.38
2018-09-02T11:51:04.618Z,1000.34
2018-09-02T11:52:04.600Z,1000.37
2018-09-02T11:53:04.587Z,1000.36
2018-09-02T11:54:04.577Z,1000.34
2018-09-02T11:55:04.565Z,1000.35
2018-09-02T11:56:04.552Z,1000.35
2018-09-02T11:57:04.539Z,1000.34
2018-09-02T11:58:04.533Z,1000.32
2018-09-02T11:59:04.520Z,1000.32
2018-09-02T12:00:04.507Z,1000.34
2018-09-02T12:01:04.494Z,1000.35
2018-09-02T12:02:04.501Z,1000.37
2018-09-02T12:03:04.469Z,1000.37
2018-09-02T12:04:04.495Z,1000.39
2018-09-02T12:05:04.451Z,1000.42